Faro, Portugal

10:11 AM WET on November 22, 2019 (GMT +0000)
Faro

Weather History for LPFR - September, 2019

Change the Weather History Date:

Monday, September 30, 2019

  Actual Average Record
Temperature  
Mean Temperature 69 °F -  
Max Temperature 78 °F 71 °F 83 °F (2014)
Min Temperature 60 °F 58 °F 57 °F (1996)
Cooling Degree Days 4    
Growing Degree Days 19 (Base 50)    
Moisture  
Dew Point 61 °F    
Average Humidity 74    
Maximum Humidity 100    
Minimum Humidity 42    
Precipitation  
Precipitation 0.00 in 0.09 in - ()
Sea Level Pressure  
Sea Level Pressure 30.02 in    
Wind  
Wind Speed 5 mph ()    
Max Wind Speed 13 mph    
Max Gust Speed -    
Visibility 10.1 miles    
Events      
Averages and records for this station are not official NWS values.
T = Trace of Precipitation, MM = Missing Value Source: Averaged Metar Reports

Daily Weather History Graph

Daily Weather History Graph

Search for Another Location

Airport or City:

Astronomy

Sep. 30, 2019 Rise Set
Actual Time 7:26 AM WEST 7:17 PM WEST
Civil Twilight 7:00 AM WEST 7:43 PM WEST
Nautical Twilight 6:29 AM WEST 8:13 PM WEST
Astronomical Twilight 5:59 AM WEST 8:43 PM WEST
Moon 9:11 AM WEST (9/30) 8:47 PM WEST (9/30)
Length of Visible Light 12h 43m
Length of Day
11h 51m
Waxing Crescent, 4% of the Moon is Illuminated
Sep 30
Waxing Crescent
Oct 5
First Quarter
Oct 13
Full
Oct 21
Last Quarter
Oct 28
New

Hourly Weather History & Observations

Time (WEST) Temp. Dew Point Humidity Pressure Visibility Wind Dir Wind Speed Gust Speed Precip Events Conditions
12:00 AM 67 °F 52 °F 47% 30.07 in - NW 2.2 mph - -  
12:00 AM 66.2 °F 53.6 °F 64% 30.04 in - West 3.5 mph - N/A   Clear
12:30 AM 68.0 °F 51.8 °F 56% 30.04 in - NW 3.5 mph - N/A   Clear
1:00 AM 69 °F 51 °F 42% 30.06 in 12 mi North 1.2 mph - -   Clear
1:00 AM 68.0 °F 51.8 °F 56% 30.04 in - North 3.5 mph - N/A   Clear
1:30 AM 69.8 °F 50.0 °F 49% 30.04 in - North 6.9 mph - N/A   Clear
2:00 AM 66.2 °F 51.8 °F 60% 30.04 in - NNE 6.9 mph - N/A   Clear
2:30 AM 64.4 °F 55.4 °F 73% 30.04 in - ESE 3.5 mph - N/A   Clear
3:00 AM 64.4 °F 57.2 °F 77% 30.04 in - ESE 3.5 mph - N/A   Clear
3:30 AM 64.4 °F 60.8 °F 88% 30.04 in - East 5.8 mph - N/A   Clear
4:00 AM 65 °F 61 °F 84% 30.04 in 12 mi East 4.5 mph - -   Clear
4:00 AM 66.2 °F 62.6 °F 88% 30.01 in - East 5.8 mph - N/A   Clear
4:30 AM 64.4 °F 60.8 °F 88% 30.01 in - ENE 3.5 mph - N/A   Clear
5:00 AM 64 °F 58 °F 73% 30.04 in - ENE 2.2 mph - -  
5:00 AM 62.6 °F 57.2 °F 82% 30.01 in - NNE 3.5 mph - N/A   Clear
5:30 AM 62.6 °F 57.2 °F 82% 30.01 in - NNE 5.8 mph - N/A   Clear
6:00 AM 64.4 °F 57.2 °F 77% 30.01 in - NNE 4.6 mph - N/A   Clear
6:30 AM 64.4 °F 57.2 °F 77% 30.01 in - NNE 6.9 mph - N/A   Clear
7:00 AM 65 °F 58 °F 73% 30.03 in 12 mi NE 4.5 mph - -   Clear
7:00 AM 64.4 °F 57.2 °F 77% 30.01 in - NNE 5.8 mph - N/A   Clear
7:30 AM 64.4 °F 57.2 °F 77% 30.01 in - NE 4.6 mph - N/A   Clear
8:00 AM 60.8 °F 55.4 °F 82% 30.04 in - Variable 2.3 mph - N/A   Clear
8:30 AM 66.2 °F 60.8 °F 83% 30.04 in - NE 4.6 mph - N/A   Clear
9:00 AM 69 °F 62 °F 71% 30.06 in - ENE 6.7 mph - -  
9:00 AM 68.0 °F 60.8 °F 78% 30.04 in - NE 6.9 mph - N/A   Clear
9:30 AM 69.8 °F 64.4 °F 83% 30.04 in - East 5.8 mph - N/A   Clear
10:00 AM 72 °F 63 °F 66% 30.06 in 12 mi East 8.9 mph - -   Clear
10:00 AM 71.6 °F 64.4 °F 78% 30.04 in - East 9.2 mph - N/A   Clear
10:30 AM 71.6 °F 62.6 °F 73% 30.04 in - East 9.2 mph - N/A   Clear
11:00 AM 74 °F 62 °F 58% 30.07 in - ESE 8.9 mph - -  
11:00 AM 71.6 °F 62.6 °F 73% 30.04 in - East 9.2 mph - N/A   Clear
11:30 AM 73.4 °F 62.6 °F 69% 30.04 in - ESE 10.4 mph - N/A   Clear
12:00 PM 75 °F 61 °F 52% 30.06 in - ESE 13.4 mph - -  
12:00 PM 75.2 °F 60.8 °F 61% 30.04 in - ESE 12.7 mph - N/A   Clear
12:30 PM 75.2 °F 60.8 °F 61% 30.04 in - ESE 12.7 mph - N/A   Clear
1:00 PM 76 °F 60 °F 49% 30.06 in 12 mi ESE 8.9 mph - -   Clear
1:00 PM 75.2 °F 60.8 °F 61% 30.04 in - ESE 10.4 mph - N/A   Clear
1:30 PM 75.2 °F 60.8 °F 61% 30.04 in - SE 8.1 mph - N/A   Clear
2:00 PM 76 °F 61 °F 50% 30.05 in - SE 4.5 mph - -  
2:00 PM 77.0 °F 60.8 °F 57% 30.04 in - ESE 6.9 mph - N/A   Clear
2:30 PM 77.0 °F 62.6 °F 61% 30.04 in - East 5.8 mph - N/A   Clear
3:00 PM 75 °F 64 °F 61% 30.04 in - SSW 6.7 mph - -  
3:00 PM 75.2 °F 64.4 °F 69% 30.01 in - South 6.9 mph - N/A   Clear
3:30 PM 73.4 °F 64.4 °F 73% 30.01 in - SSW 6.9 mph - N/A   Clear
4:00 PM 75 °F 64 °F 60% 30.02 in 12 mi SW 6.7 mph - -   Scattered Clouds
4:00 PM 73.4 °F 64.4 °F 73% 30.01 in - SSW 5.8 mph - N/A   Clear
4:30 PM 73.4 °F 64.4 °F 73% 29.98 in - SSW 5.8 mph - N/A   Clear
5:00 PM 73 °F 64 °F 65% 30.01 in - WSW 6.7 mph - -  
5:00 PM 71.6 °F 64.4 °F 78% 29.98 in - SSW 6.9 mph - N/A   Clear
5:30 PM 71.6 °F 64.4 °F 78% 29.98 in - SW 6.9 mph - N/A   Clear
6:00 PM 72 °F 65 °F 71% 30.00 in - West 6.7 mph - -  
6:00 PM 71.6 °F 64.4 °F 78% 29.98 in - WSW 6.9 mph - N/A   Clear
6:30 PM 71.6 °F 64.4 °F 78% 29.98 in - West 6.9 mph - N/A   Clear
7:00 PM 71 °F 65 °F 75% 29.99 in 11 mi West 4.5 mph - -   Clear
7:00 PM 69.8 °F 64.4 °F 83% 29.98 in - West 5.8 mph - N/A   Clear
7:30 PM 68.0 °F 64.4 °F 88% 29.98 in - West 6.9 mph - N/A   Clear
8:00 PM 68 °F 65 °F 87% 29.99 in - West 8.9 mph - -  
8:00 PM 68.0 °F 64.4 °F 88% 29.98 in - West 8.1 mph - N/A   Clear
8:30 PM 68.0 °F 64.4 °F 88% 29.98 in - West 8.1 mph - N/A   Clear
9:00 PM 68 °F 65 °F 89% 30.00 in - West 8.9 mph - -  
9:00 PM 66.2 °F 64.4 °F 94% 29.98 in - West 9.2 mph - N/A   Clear
9:30 PM 68.0 °F 66.2 °F 94% 29.98 in - West 9.2 mph - N/A   Clear
10:00 PM 67 °F 67 °F 98% 30.00 in 6 mi West 8.9 mph - -   Mist
10:00 PM 66.2 °F 66.2 °F 100% 29.98 in 6.2 mi West 6.9 mph - N/A   Partly Cloudy
10:30 PM 66.2 °F 64.4 °F 94% 29.98 in 5.6 mi WSW 6.9 mph - N/A   Partly Cloudy
11:00 PM 66.2 °F 64.4 °F 94% 29.98 in - WSW 6.9 mph - N/A   Clear
11:30 PM 64.4 °F 64.4 °F 100% 29.98 in - West 5.8 mph - N/A   Clear